Time;durP1;ratioP1;P1;durP2;ratioP2;P2;SDS_P1;SDS_P2;PMS_P1;PMS_P2;Temp;Humidity;BMP_temperature;BMP_pressure;BME280_temperature;BME280_humidity;BME280_pressure;Samples;Min_cycle;Max_cycle;Signal;HPM_P1;HPM_P2
2023/06/08 00:01:57;;;;;;;2.40;2.20;;;;;;;16.29;59.47;95484.06;6132861;23;20474;-81
2023/06/08 00:04:22;;;;;;;3.58;2.60;;;;;;;16.29;59.52;95486.69;6157191;23;20204;-81
2023/06/08 00:06:52;;;;;;;2.95;2.72;;;;;;;16.32;59.51;95478.44;6131647;23;20167;-81
2023/06/08 00:09:17;;;;;;;6.13;3.47;;;;;;;16.35;59.44;95483.34;6133531;23;20242;-82
2023/06/08 00:11:43;;;;;;;3.28;2.55;;;;;;;16.35;59.51;95475.47;6157309;23;20151;-82
2023/06/08 00:14:08;;;;;;;2.60;2.40;;;;;;;16.31;59.14;95476.81;6133142;23;20183;-80
2023/06/08 00:16:38;;;;;;;2.75;2.45;;;;;;;16.33;59.45;95472.22;6132043;23;20155;-82
2023/06/08 00:19:03;;;;;;;2.67;2.47;;;;;;;16.29;59.92;95476.22;6130627;23;20830;-81
2023/06/08 00:21:29;;;;;;;3.13;2.83;;;;;;;16.23;60.72;95474.31;6133434;23;20159;-82
2023/06/08 00:23:54;;;;;;;2.72;2.53;;;;;;;16.39;60.02;95471.47;6133028;23;20506;-80
2023/06/08 00:26:20;;;;;;;2.63;2.42;;;;;;;16.37;59.85;95478.72;6130055;23;20159;-81
2023/06/08 00:28:49;;;;;;;2.60;2.40;;;;;;;16.45;59.50;95465.50;6155839;23;20747;-81
2023/06/08 00:31:16;;;;;;;2.85;2.40;;;;;;;16.42;59.71;95471.91;6154140;23;20159;-81
2023/06/08 00:33:41;;;;;;;2.60;2.40;;;;;;;16.40;60.06;95463.44;6155434;23;20519;-81
2023/06/08 00:36:07;;;;;;;2.85;2.60;;;;;;;16.34;60.20;95468.59;6154567;23;20165;-81
2023/06/08 00:38:33;;;;;;;2.85;2.65;;;;;;;16.25;60.71;95467.88;6154857;23;20582;-81
2023/06/08 00:40:59;;;;;;;3.00;2.80;;;;;;;16.18;61.03;95467.03;6105489;23;20250;-80
2023/06/08 00:43:24;;;;;;;3.95;2.58;;;;;;;16.11;60.98;95473.97;6130667;23;20652;-82
2023/06/08 00:45:50;;;;;;;3.40;2.95;;;;;;;16.18;60.73;95474.88;6154172;23;20155;-81
2023/06/08 00:48:16;;;;;;;3.10;2.80;;;;;;;16.17;61.38;95469.81;6131889;23;20589;-81
2023/06/08 00:50:43;;;;;;;2.20;1.98;;;;;;;16.23;61.39;95466.44;6131020;23;20174;-81
2023/06/08 00:53:08;;;;;;;3.00;2.80;;;;;;;16.20;61.15;95469.44;6132654;23;20198;-81
2023/06/08 00:55:35;;;;;;;3.38;3.10;;;;;;;16.21;60.71;95468.44;6131105;23;20594;-80
2023/06/08 00:58:01;;;;;;;2.80;2.60;;;;;;;16.20;61.03;95469.44;6133827;23;20155;-79
2023/06/08 01:00:27;;;;;;;3.05;2.75;;;;;;;16.15;61.24;95465.56;6149024;23;20166;-78
2023/06/08 01:02:53;;;;;;;2.78;2.45;;;;;;;16.11;62.02;95463.50;6175539;23;20172;-81
2023/06/08 01:05:18;;;;;;;3.22;2.58;;;;;;;16.03;61.94;95467.03;6177393;23;20243;-80
2023/06/08 01:07:59;;;;;;;3.42;2.83;;;;;;;15.96;62.50;95463.53;6149782;23;20155;-80
2023/06/08 01:10:33;;;;;;;3.17;2.97;;;;;;;15.87;63.10;95462.00;6158514;23;20152;-81
2023/06/08 01:13:29;;;;;;;3.88;2.60;;;;;;;15.64;65.17;95458.69;6134993;23;20202;-81
2023/06/08 01:16:01;;;;;;;3.45;2.63;;;;;;;15.71;64.38;95457.75;6132082;23;20166;-81
2023/06/08 01:18:32;;;;;;;3.00;2.80;;;;;;;15.65;64.59;95458.50;6107150;23;20154;-81
2023/06/08 01:21:24;;;;;;;2.83;2.63;;;;;;;15.64;64.35;95459.50;6155630;23;20132;-80
2023/06/08 01:24:11;;;;;;;4.43;2.80;;;;;;;15.51;65.09;95462.69;6131374;23;20210;-80
2023/06/08 01:26:43;;;;;;;3.40;3.10;;;;;;;15.44;65.44;95450.50;6129902;23;20166;-81
2023/06/08 01:29:10;;;;;;;3.25;2.95;;;;;;;15.42;65.62;95457.72;6132852;23;20181;-83
2023/06/08 01:31:36;;;;;;;2.83;2.63;;;;;;;15.43;65.65;95454.13;6132537;23;20673;-79
2023/06/08 01:34:05;;;;;;;3.45;2.67;;;;;;;15.43;65.25;95454.94;6133785;23;20198;-80
2023/06/08 01:36:51;;;;;;;3.28;2.97;;;;;;;15.41;64.98;95454.31;6132966;23;20159;-82
2023/06/08 01:39:30;;;;;;;3.83;2.80;;;;;;;15.40;64.94;95455.28;6157893;23;20147;-82
2023/06/08 01:41:58;;;;;;;4.10;3.40;;;;;;;15.41;65.22;95456.91;6159567;23;20139;-82
2023/06/08 01:44:24;;;;;;;3.88;3.10;;;;;;;15.42;65.16;95453.31;6133517;23;20189;-82
2023/06/08 01:46:55;;;;;;;3.10;2.80;;;;;;;15.43;64.69;95452.31;6157855;23;20170;-81
2023/06/08 01:49:22;;;;;;;3.25;2.95;;;;;;;15.45;64.50;95452.94;6133464;23;20218;-80
2023/06/08 01:51:48;;;;;;;4.15;3.47;;;;;;;15.44;64.80;95453.94;6133796;23;20163;-81
2023/06/08 01:54:13;;;;;;;3.08;2.88;;;;;;;15.48;64.81;95446.56;6158316;23;20757;-81
2023/06/08 01:56:39;;;;;;;3.50;2.75;;;;;;;15.48;65.00;95449.97;6155026;23;20159;-80
2023/06/08 01:59:04;;;;;;;2.75;2.55;;;;;;;15.49;64.50;95443.75;6132995;23;20605;-81
2023/06/08 02:01:30;;;;;;;3.35;3.05;;;;;;;15.46;64.48;95444.13;6133430;23;20159;-80
2023/06/08 02:03:55;;;;;;;3.97;3.30;;;;;;;15.48;64.58;95434.28;6157169;23;20171;-81
2023/06/08 02:06:20;;;;;;;3.30;3.00;;;;;;;15.38;65.52;95440.78;6156403;23;20151;-81
2023/06/08 02:08:47;;;;;;;3.10;2.90;;;;;;;15.48;65.01;95441.31;6157459;23;20156;-80
2023/06/08 02:11:12;;;;;;;3.72;2.88;;;;;;;15.52;64.63;95443.38;6132468;23;20493;-81
2023/06/08 02:13:41;;;;;;;3.85;3.30;;;;;;;15.44;64.71;95435.63;6132130;23;20191;-82
2023/06/08 02:16:06;;;;;;;3.88;3.20;;;;;;;15.41;65.40;95435.97;6132491;23;20625;-80
2023/06/08 02:18:35;;;;;;;4.55;2.97;;;;;;;15.42;65.33;95431.56;6156992;23;20234;-81
2023/06/08 02:21:02;;;;;;;3.00;2.80;;;;;;;15.42;65.32;95435.00;6131920;23;20167;-81
2023/06/08 02:23:27;;;;;;;3.83;3.08;;;;;;;15.41;65.24;95438.59;6132331;23;20557;-79
2023/06/08 02:25:53;;;;;;;3.35;3.10;;;;;;;15.35;64.54;95436.69;6131207;23;20155;-82
2023/06/08 02:28:18;;;;;;;3.30;3.10;;;;;;;15.45;64.53;95431.19;6157083;23;20174;-82
2023/06/08 02:30:43;;;;;;;5.07;3.10;;;;;;;15.41;64.74;95428.13;6131237;23;20163;-81
2023/06/08 02:33:08;;;;;;;3.50;3.20;;;;;;;15.46;64.81;95428.41;6131883;23;20250;-81
2023/06/08 02:35:34;;;;;;;3.55;3.25;;;;;;;15.46;64.56;95431.03;6131764;23;20169;-82
2023/06/08 02:37:59;;;;;;;3.75;3.42;;;;;;;15.49;64.70;95433.28;6130907;23;20213;-81
2023/06/08 02:40:24;;;;;;;3.50;3.20;;;;;;;15.50;65.25;95431.47;6106342;23;20159;-81
2023/06/08 02:42:50;;;;;;;3.63;3.33;;;;;;;15.48;65.17;95433.47;6155713;23;20171;-80
2023/06/08 02:45:15;;;;;;;3.63;2.97;;;;;;;15.41;65.10;95425.53;6131143;23;20171;-81
2023/06/08 02:47:40;;;;;;;3.73;3.43;;;;;;;15.33;65.98;95422.19;6130602;23;20156;-81
2023/06/08 02:50:06;;;;;;;3.53;3.13;;;;;;;15.35;66.42;95426.22;6155943;23;20166;-81
2023/06/08 02:52:31;;;;;;;3.60;3.30;;;;;;;15.32;66.57;95421.38;6130859;23;20182;-82
2023/06/08 02:54:56;;;;;;;3.28;3.00;;;;;;;15.27;66.77;95423.69;6156076;23;20474;-81
2023/06/08 02:57:22;;;;;;;4.03;3.28;;;;;;;15.19;66.85;95421.16;6128864;23;20589;-81
2023/06/08 02:59:47;;;;;;;3.92;3.60;;;;;;;15.13;67.01;95427.13;6131145;23;20209;-82
2023/06/08 03:02:12;;;;;;;3.83;3.53;;;;;;;15.05;67.50;95432.44;6131935;23;20147;-82
2023/06/08 03:04:38;;;;;;;4.10;3.33;;;;;;;15.01;67.51;95429.34;6156414;23;20254;-82
2023/06/08 03:07:03;;;;;;;3.90;3.60;;;;;;;15.00;67.69;95423.31;6130299;23;20190;-82
2023/06/08 03:09:29;;;;;;;3.90;3.60;;;;;;;14.98;68.25;95420.06;6156083;23;20155;-81
2023/06/08 03:11:55;;;;;;;4.00;3.70;;;;;;;14.95;68.06;95420.41;6155454;23;20158;-81
2023/06/08 03:14:20;;;;;;;4.18;3.80;;;;;;;14.97;68.07;95423.66;6155329;23;20175;-82
2023/06/08 03:16:46;;;;;;;4.78;4.38;;;;;;;14.99;68.24;95429.53;6130807;23;20170;-82
2023/06/08 03:19:12;;;;;;;4.32;3.85;;;;;;;15.00;67.95;95422.50;6131720;23;20155;-82
2023/06/08 03:21:38;;;;;;;4.10;3.80;;;;;;;15.09;67.89;95420.59;6156793;23;20155;-82
2023/06/08 03:24:03;;;;;;;4.30;3.90;;;;;;;15.10;67.99;95414.38;6156899;23;20197;-81
2023/06/08 03:26:29;;;;;;;4.43;4.03;;;;;;;15.12;67.77;95415.03;6131789;23;20173;-80
2023/06/08 03:28:54;;;;;;;3.95;3.50;;;;;;;15.11;68.20;95416.03;6156388;23;20159;-82
2023/06/08 03:31:20;;;;;;;4.32;3.92;;;;;;;15.15;67.52;95419.91;6132513;23;20163;-82
2023/06/08 03:33:46;;;;;;;4.32;3.92;;;;;;;15.17;67.44;95417.91;6132397;23;20206;-82
2023/06/08 03:36:11;;;;;;;3.83;3.53;;;;;;;15.19;67.63;95421.16;6131043;23;20159;-81
2023/06/08 03:38:36;;;;;;;4.45;4.00;;;;;;;15.24;67.00;95421.44;6107891;23;20213;-82
2023/06/08 03:41:01;;;;;;;4.63;3.70;;;;;;;15.27;67.00;95421.06;6132427;23;20159;-82
2023/06/08 03:43:27;;;;;;;4.30;3.95;;;;;;;15.34;66.61;95419.38;6159261;23;20163;-82
2023/06/08 03:45:52;;;;;;;4.18;3.78;;;;;;;15.39;66.50;95418.84;6131315;23;20163;-82
2023/06/08 03:48:17;;;;;;;4.40;4.00;;;;;;;15.56;65.89;95422.91;6156291;23;20151;-81
2023/06/08 03:50:43;;;;;;;4.30;3.50;;;;;;;15.80;64.84;95429.66;6131900;23;20182;-82
2023/06/08 03:53:10;;;;;;;3.85;3.47;;;;;;;16.62;62.12;95437.25;6131623;23;20195;-82
2023/06/08 03:55:36;;;;;;;3.60;3.30;;;;;;;17.59;58.25;95426.09;6131671;23;20183;-81
2023/06/08 03:58:01;;;;;;;3.85;3.25;;;;;;;18.18;57.05;95425.53;6153454;23;20159;-83
2023/06/08 04:00:26;;;;;;;3.08;2.88;;;;;;;19.23;53.18;95432.78;6107031;23;20167;-82
2023/06/08 04:02:52;;;;;;;4.10;3.42;;;;;;;20.02;50.96;95429.19;6155721;23;20253;-82
2023/06/08 04:05:17;;;;;;;3.58;3.35;;;;;;;20.61;49.48;95433.41;6155970;23;20151;-82
2023/06/08 04:07:43;;;;;;;3.45;3.15;;;;;;;20.98;48.94;95439.63;6155119;23;20598;-82
2023/06/08 04:10:08;;;;;;;4.43;3.33;;;;;;;21.19;48.28;95430.50;6131173;23;20365;-81
2023/06/08 04:12:34;;;;;;;3.67;3.38;;;;;;;21.23;48.32;95438.81;6158283;23;20175;-83
2023/06/08 04:15:01;;;;;;;3.35;2.85;;;;;;;21.70;46.37;95443.47;6108160;23;20167;-82
2023/06/08 04:17:27;;;;;;;3.70;3.28;;;;;;;22.72;43.63;95435.75;6155978;23;20179;-82
2023/06/08 04:19:53;;;;;;;3.45;3.13;;;;;;;22.75;43.91;95437.94;6131208;23;20163;-82
2023/06/08 04:22:18;;;;;;;3.55;3.10;;;;;;;22.50;43.52;95439.91;6131504;23;20221;-82
2023/06/08 04:24:43;;;;;;;3.03;2.83;;;;;;;23.16;41.97;95441.63;6156330;23;20151;-83
2023/06/08 04:27:10;;;;;;;3.28;3.05;;;;;;;23.23;42.78;95442.31;6156863;23;20684;-83
2023/06/08 04:29:35;;;;;;;2.75;2.45;;;;;;;25.16;40.04;95449.97;6131426;23;20151;-83
2023/06/08 04:32:00;;;;;;;2.83;2.63;;;;;;;25.24;38.81;95452.22;6156954;23;20501;-82
2023/06/08 04:34:26;;;;;;;3.00;2.80;;;;;;;24.70;39.65;95451.81;6157405;23;20202;-84
2023/06/08 04:36:51;;;;;;;2.92;2.72;;;;;;;25.40;37.22;95451.41;6131586;23;20166;-81
2023/06/08 04:39:16;;;;;;;3.30;3.10;;;;;;;25.78;36.60;95453.31;6132416;23;20155;-84
2023/06/08 04:41:44;;;;;;;3.20;3.00;;;;;;;23.89;39.42;95446.47;6132971;23;20155;-84
2023/06/08 04:44:13;;;;;;;3.53;3.00;;;;;;;22.75;42.41;95448.53;6132383;23;20183;-84
2023/06/08 04:46:38;;;;;;;4.30;3.10;;;;;;;23.63;40.74;95447.78;6132223;23;20170;-83
2023/06/08 04:49:03;;;;;;;4.55;2.90;;;;;;;25.62;37.71;95451.47;6132660;23;20187;-83
2023/06/08 04:51:31;;;;;;;3.42;3.13;;;;;;;26.73;34.91;95448.66;6132968;23;20170;-83
2023/06/08 04:54:00;;;;;;;4.30;3.10;;;;;;;27.43;33.11;95449.56;6133368;23;20210;-82
2023/06/08 04:56:28;;;;;;;3.80;2.95;;;;;;;27.99;33.08;95455.25;6155440;23;20485;-82
2023/06/08 04:58:53;;;;;;;2.95;2.58;;;;;;;28.68;31.87;95447.81;6133761;23;20159;-80
2023/06/08 05:01:18;;;;;;;3.58;3.17;;;;;;;26.86;34.64;95445.59;6133442;23;20226;-79
2023/06/08 05:03:44;;;;;;;3.13;2.75;;;;;;;26.12;35.40;95442.59;6134805;23;20226;-83
2023/06/08 05:06:09;;;;;;;3.30;3.00;;;;;;;24.45;38.29;95447.63;6135060;23;20509;-80
2023/06/08 05:08:34;;;;;;;3.78;3.08;;;;;;;23.94;39.46;95446.59;6135425;23;20252;-82
2023/06/08 05:11:00;;;;;;;3.63;3.30;;;;;;;23.08;41.59;95444.59;6135030;23;20155;-83
2023/06/08 05:13:25;;;;;;;3.45;3.15;;;;;;;22.77;41.79;95446.44;6159282;23;20612;-83
2023/06/08 05:15:50;;;;;;;6.03;3.20;;;;;;;22.12;43.27;95437.56;6109990;23;20163;-83
2023/06/08 05:18:16;;;;;;;3.22;3.03;;;;;;;21.24;45.83;95448.38;6162045;23;20161;-82
2023/06/08 05:20:41;;;;;;;3.38;3.08;;;;;;;20.59;48.10;95441.53;6135021;23;20171;-83
2023/06/08 05:23:06;;;;;;;3.85;3.45;;;;;;;20.30;48.34;95444.69;6135396;23;20198;-83
2023/06/08 05:25:36;;;;;;;3.85;3.50;;;;;;;20.02;49.53;95435.28;6134928;23;20151;-82
2023/06/08 05:28:02;;;;;;;3.40;3.10;;;;;;;20.04;48.64;95427.16;6134634;23;20259;-83
2023/06/08 05:30:27;;;;;;;4.35;3.30;;;;;;;19.76;49.13;95432.72;6160862;23;20156;-83
2023/06/08 05:32:52;;;;;;;3.58;3.28;;;;;;;19.50;49.81;95434.38;6133707;23;20198;-82
2023/06/08 05:35:18;;;;;;;3.60;3.08;;;;;;;19.68;49.47;95438.22;6134334;23;20214;-83
2023/06/08 05:37:43;;;;;;;3.50;3.20;;;;;;;19.49;50.17;95437.22;6133075;23;20218;-82
2023/06/08 05:40:09;;;;;;;3.90;3.47;;;;;;;19.23;51.19;95425.69;6134041;23;20565;-81
2023/06/08 05:42:35;;;;;;;3.80;3.50;;;;;;;18.91;53.47;95427.34;6133709;23;20213;-81
2023/06/08 05:45:00;;;;;;;3.65;3.35;;;;;;;18.88;53.67;95422.47;6134635;23;20219;-83
2023/06/08 05:47:25;;;;;;;5.28;3.60;;;;;;;18.87;54.58;95434.00;6133130;23;20163;-84
2023/06/08 05:49:50;;;;;;;4.20;3.60;;;;;;;18.94;54.19;95426.94;6159349;23;20618;-82
2023/06/08 05:52:16;;;;;;;3.85;3.17;;;;;;;19.05;53.69;95433.41;6158701;23;20175;-83
2023/06/08 05:54:41;;;;;;;4.03;3.60;;;;;;;18.78;53.96;95437.03;6158715;23;20170;-83
2023/06/08 05:57:06;;;;;;;3.72;3.35;;;;;;;18.68;53.25;95434.81;6156265;23;20170;-83
2023/06/08 05:59:32;;;;;;;5.00;4.15;;;;;;;18.79;53.31;95436.84;6134575;23;20163;-83
2023/06/08 06:01:57;;;;;;;4.50;4.05;;;;;;;18.87;52.47;95431.38;6158645;23;20155;-81
2023/06/08 06:04:22;;;;;;;5.15;4.25;;;;;;;19.08;52.76;95443.53;6135023;23;20186;-83
2023/06/08 06:06:48;;;;;;;4.80;4.15;;;;;;;19.16;53.29;95437.25;6108896;23;20167;-83
2023/06/08 06:09:13;;;;;;;4.50;4.10;;;;;;;19.33;53.75;95441.06;6159391;23;20162;-83
2023/06/08 06:11:38;;;;;;;4.40;4.00;;;;;;;19.47;52.63;95441.88;6134092;23;20163;-83
2023/06/08 06:14:04;;;;;;;3.58;3.28;;;;;;;20.03;51.60;95434.25;6132897;23;20183;-83
2023/06/08 06:16:29;;;;;;;6.07;4.28;;;;;;;20.29;50.51;95440.44;6132951;23;20246;-82
2023/06/08 06:18:54;;;;;;;5.03;4.00;;;;;;;20.48;50.27;95441.38;6133532;23;20168;-81
2023/06/08 06:21:19;;;;;;;4.95;3.72;;;;;;;20.40;50.10;95437.13;6133685;23;20166;-82
2023/06/08 06:23:45;;;;;;;4.05;3.50;;;;;;;20.80;50.11;95436.91;6133987;23;20184;-83
2023/06/08 06:26:11;;;;;;;4.13;3.72;;;;;;;21.51;47.91;95439.19;6133200;23;20529;-84
2023/06/08 06:28:37;;;;;;;3.50;3.20;;;;;;;23.32;43.46;95450.72;6134411;23;20173;-83
2023/06/08 06:31:02;;;;;;;5.07;3.50;;;;;;;24.35;41.04;95454.59;6159573;23;20494;-83
2023/06/08 06:33:27;;;;;;;4.20;3.65;;;;;;;26.06;37.57;95464.88;6144259;23;20353;-79
2023/06/08 06:35:53;;;;;;;3.65;3.35;;;;;;;26.61;36.08;95469.31;6157291;23;20183;-79
2023/06/08 06:38:19;;;;;;;3.50;3.15;;;;;;;27.69;33.54;95472.72;6134229;23;20158;-80
2023/06/08 06:40:45;;;;;;;4.57;3.35;;;;;;;28.67;32.40;95480.16;6156451;23;20144;-82
2023/06/08 06:43:10;;;;;;;4.70;3.38;;;;;;;30.02;30.86;95487.72;6168711;23;20167;-83
2023/06/08 06:45:37;;;;;;;3.65;3.33;;;;;;;30.31;29.69;95497.88;6136804;23;20569;-82
2023/06/08 06:48:03;;;;;;;3.03;2.83;;;;;;;27.88;32.77;95497.91;6135688;23;20163;-83
2023/06/08 06:50:28;;;;;;;3.75;3.30;;;;;;;26.03;36.61;95506.09;6160381;23;20164;-84
2023/06/08 06:52:53;;;;;;;3.42;3.17;;;;;;;24.86;39.34;95509.47;6134165;23;20262;-84
2023/06/08 06:55:19;;;;;;;3.67;3.20;;;;;;;24.11;41.17;95502.38;6135232;23;20169;-82
2023/06/08 06:57:45;;;;;;;3.50;3.20;;;;;;;23.64;42.34;95504.25;6157866;23;20159;-82
2023/06/08 07:00:10;;;;;;;3.97;3.58;;;;;;;23.04;44.34;95502.50;6135951;23;20521;-84
2023/06/08 07:02:40;;;;;;;3.40;3.10;;;;;;;22.60;45.69;95504.50;6160146;23;20171;-84
2023/06/08 07:05:07;;;;;;;4.07;3.42;;;;;;;23.93;43.18;95503.31;6134128;23;20167;-83
2023/06/08 07:07:32;;;;;;;3.40;3.10;;;;;;;24.64;40.89;95503.19;6109465;23;20245;-83
2023/06/08 07:09:58;;;;;;;3.13;2.85;;;;;;;24.57;40.39;95501.50;6109273;23;20489;-83
2023/06/08 07:12:23;;;;;;;3.72;3.42;;;;;;;24.68;40.36;95507.00;6134067;23;20190;-81
2023/06/08 07:14:48;;;;;;;3.75;3.42;;;;;;;23.79;42.46;95506.44;6109667;23;20163;-84
2023/06/08 07:17:14;;;;;;;4.00;3.63;;;;;;;23.48;43.73;95512.84;6157943;23;20175;-84
2023/06/08 07:19:41;;;;;;;4.43;3.22;;;;;;;24.27;42.40;95514.13;6159090;23;20246;-83
2023/06/08 07:22:06;;;;;;;7.18;3.40;;;;;;;24.25;41.52;95514.34;6134599;23;20163;-83
2023/06/08 07:24:32;;;;;;;4.00;3.28;;;;;;;24.20;41.54;95516.88;6133951;23;20556;-81
2023/06/08 07:26:57;;;;;;;3.70;3.40;;;;;;;24.35;41.51;95518.28;6158246;23;20962;-82
2023/06/08 07:29:22;;;;;;;3.78;3.47;;;;;;;25.86;37.30;95524.72;6135234;23;20139;-84
2023/06/08 07:31:48;;;;;;;3.30;3.00;;;;;;;27.14;35.02;95519.16;6134864;23;20167;-83
2023/06/08 07:34:13;;;;;;;3.00;2.80;;;;;;;27.99;33.94;95525.44;6161519;23;20183;-82
2023/06/08 07:36:38;;;;;;;7.07;3.55;;;;;;;28.53;32.87;95519.09;6134655;23;20163;-84
2023/06/08 07:39:04;;;;;;;3.42;3.13;;;;;;;27.95;33.99;95519.03;6135898;23;20159;-82
2023/06/08 07:41:29;;;;;;;3.60;3.30;;;;;;;27.14;34.83;95519.16;6135268;23;20202;-84
2023/06/08 07:43:55;;;;;;;3.95;3.65;;;;;;;26.51;34.78;95517.94;6135354;23;20167;-84
2023/06/08 07:46:21;;;;;;;4.38;3.15;;;;;;;27.60;33.88;95522.22;6110251;23;20214;-83
2023/06/08 07:48:46;;;;;;;3.95;3.40;;;;;;;27.97;32.46;95521.44;6135822;23;20155;-84
2023/06/08 07:51:11;;;;;;;3.70;3.33;;;;;;;28.10;32.49;95521.81;6134940;23;20159;-84
2023/06/08 07:53:40;;;;;;;3.65;3.38;;;;;;;28.22;32.45;95521.59;6135108;23;20693;-84
2023/06/08 07:56:05;;;;;;;3.75;3.38;;;;;;;28.11;32.48;95523.41;6109947;23;20163;-83
2023/06/08 07:58:31;;;;;;;3.63;3.22;;;;;;;28.59;31.51;95526.88;6158216;23;20521;-84
2023/06/08 08:00:57;;;;;;;4.15;3.85;;;;;;;28.66;30.79;95526.63;6135348;23;20214;-82
2023/06/08 08:03:23;;;;;;;3.83;3.53;;;;;;;27.92;31.67;95524.91;6135075;23;20277;-83
2023/06/08 08:05:51;;;;;;;3.75;3.45;;;;;;;26.28;34.90;95526.91;6159131;23;20151;-81
2023/06/08 08:08:16;;;;;;;4.05;3.75;;;;;;;25.87;36.76;95515.69;6158822;23;20222;-83
2023/06/08 08:10:42;;;;;;;3.67;3.38;;;;;;;25.98;35.86;95522.78;6159348;23;20155;-81
2023/06/08 08:13:08;;;;;;;4.35;4.00;;;;;;;26.46;33.44;95523.19;6134904;23;20193;-84
2023/06/08 08:15:34;;;;;;;4.05;3.67;;;;;;;26.39;33.48;95522.56;6133978;23;20163;-82
2023/06/08 08:17:59;;;;;;;5.03;4.15;;;;;;;25.63;35.89;95515.06;6133802;23;20306;-82
2023/06/08 08:20:24;;;;;;;4.00;3.70;;;;;;;25.31;36.11;95516.66;6133639;23;20163;-83
2023/06/08 08:22:50;;;;;;;5.97;3.65;;;;;;;25.33;36.63;95514.56;6159857;23;20186;-83
2023/06/08 08:25:15;;;;;;;4.07;3.75;;;;;;;25.10;36.52;95504.88;6134665;23;20536;-83
2023/06/08 08:27:40;;;;;;;4.35;3.95;;;;;;;24.41;37.89;95509.41;6159429;23;20214;-84
2023/06/08 08:30:06;;;;;;;4.88;3.33;;;;;;;25.61;36.45;95514.47;6160316;23;20580;-84
2023/06/08 08:32:31;;;;;;;5.45;3.60;;;;;;;25.48;35.44;95512.16;6162054;23;20227;-82
2023/06/08 08:34:57;;;;;;;3.88;3.20;;;;;;;25.84;36.42;95515.38;6136187;23;20163;-83
2023/06/08 08:37:22;;;;;;;4.35;3.90;;;;;;;25.55;35.27;95518.13;6133728;23;20167;-83
2023/06/08 08:39:47;;;;;;;3.80;3.50;;;;;;;26.11;34.20;95512.84;6111073;23;20166;-83
2023/06/08 08:42:18;;;;;;;4.80;3.50;;;;;;;26.01;33.41;95510.84;6135752;23;20218;-83
2023/06/08 08:44:47;;;;;;;4.38;3.83;;;;;;;26.47;34.05;95524.78;6160419;23;20170;-82
2023/06/08 08:47:13;;;;;;;4.20;3.78;;;;;;;26.33;33.42;95523.50;6134743;23;20186;-84
2023/06/08 08:49:43;;;;;;;4.32;3.78;;;;;;;26.50;33.77;95513.63;6136024;23;20554;-84
2023/06/08 08:52:09;;;;;;;3.90;3.58;;;;;;;26.06;33.91;95518.09;6112340;23;20475;-84
2023/06/08 08:54:36;;;;;;;4.85;3.80;;;;;;;25.55;33.29;95507.50;6136518;23;20237;-83
2023/06/08 08:57:01;;;;;;;3.97;3.67;;;;;;;25.56;33.63;95506.44;6138608;23;20258;-83
2023/06/08 08:59:28;;;;;;;5.32;3.88;;;;;;;24.70;34.71;95503.06;6167328;23;20759;-83
2023/06/08 09:01:54;;;;;;;4.13;3.40;;;;;;;24.59;33.06;95498.59;6141410;23;20155;-82
2023/06/08 09:04:19;;;;;;;5.00;3.60;;;;;;;24.45;38.12;95498.06;6165592;23;20198;-81
2023/06/08 09:06:48;;;;;;;4.82;3.75;;;;;;;24.48;37.43;95487.00;6140572;23;20800;-82
2023/06/08 09:09:13;;;;;;;3.72;3.42;;;;;;;23.69;39.95;95483.97;6116286;23;20159;-81
2023/06/08 09:11:58;;;;;;;6.68;4.47;;;;;;;23.59;39.75;95478.44;6166063;23;20178;-82
2023/06/08 09:14:24;;;;;;;3.80;3.50;;;;;;;23.82;39.70;95488.22;6141601;23;20179;-81
2023/06/08 09:16:49;;;;;;;6.78;4.45;;;;;;;23.66;40.32;95479.13;6141137;23;20166;-82
2023/06/08 09:19:15;;;;;;;4.45;3.83;;;;;;;23.60;39.69;95485.34;6142324;23;20159;-82
2023/06/08 09:21:40;;;;;;;5.18;4.45;;;;;;;24.01;38.55;95481.75;6164463;23;20151;-82
2023/06/08 09:24:12;;;;;;;6.53;4.30;;;;;;;24.09;39.14;95479.78;6112307;23;20261;-83
2023/06/08 09:26:51;;;;;;;5.68;4.82;;;;;;;23.84;39.86;95482.69;6161969;23;20196;-83
2023/06/08 09:29:37;;;;;;;5.95;4.53;;;;;;;24.08;39.46;95486.94;6137052;23;20140;-83
2023/06/08 09:32:04;;;;;;;6.97;4.20;;;;;;;24.21;39.43;95480.56;6135979;23;20159;-83
2023/06/08 09:34:29;;;;;;;4.65;4.25;;;;;;;24.18;38.17;95481.03;6137073;23;20183;-83
2023/06/08 09:37:04;;;;;;;4.75;4.35;;;;;;;23.92;40.00;95483.13;6135028;23;20162;-83
2023/06/08 09:39:44;;;;;;;4.93;4.53;;;;;;;24.52;38.06;95485.47;6111685;23;20147;-83
2023/06/08 09:42:10;;;;;;;5.00;4.57;;;;;;;24.93;38.48;95483.56;6162160;23;20632;-84
2023/06/08 09:44:35;;;;;;;4.70;4.30;;;;;;;24.48;39.52;95484.34;6161110;23;20171;-84
2023/06/08 09:47:21;;;;;;;5.78;4.65;;;;;;;25.34;37.90;95489.59;6136867;23;20167;-83
2023/06/08 09:49:55;;;;;;;5.72;4.45;;;;;;;25.13;37.53;95486.59;6138356;23;20191;-83
2023/06/08 09:52:23;;;;;;;5.55;4.78;;;;;;;25.20;37.48;95488.31;6114690;23;20171;-83
2023/06/08 09:54:50;;;;;;;5.72;4.65;;;;;;;25.42;37.52;95475.91;6166311;23;20242;-82
2023/06/08 09:57:16;;;;;;;4.65;4.22;;;;;;;25.67;37.48;95480.81;6111203;23;20159;-83
2023/06/08 09:59:46;;;;;;;4.80;4.35;;;;;;;26.07;36.40;95475.28;6161758;23;20151;-84
2023/06/08 10:02:19;;;;;;;4.80;4.30;;;;;;;25.92;37.27;95469.75;6137664;23;20163;-83
2023/06/08 10:04:58;;;;;;;4.97;4.35;;;;;;;26.01;35.86;95465.63;6163461;23;20665;-84
2023/06/08 10:07:29;;;;;;;4.90;4.50;;;;;;;26.09;33.97;95467.84;6138275;23;20226;-83
2023/06/08 10:10:04;;;;;;;4.55;4.15;;;;;;;25.64;33.28;95460.81;6139147;23;20146;-83
2023/06/08 10:12:30;;;;;;;5.78;3.63;;;;;;;25.47;31.88;95462.69;6138765;23;20226;-82
2023/06/08 10:14:56;;;;;;;4.20;3.80;;;;;;;25.54;31.33;95468.66;6164462;23;20163;-80
2023/06/08 10:17:23;;;;;;;4.22;3.70;;;;;;;25.87;31.59;95464.34;6162162;23;20155;-81
2023/06/08 10:19:50;;;;;;;4.47;4.07;;;;;;;24.73;33.32;95461.94;6138244;23;20155;-82
2023/06/08 10:22:15;;;;;;;5.28;3.90;;;;;;;25.23;33.24;95456.72;6137511;23;20159;-82
2023/06/08 10:24:41;;;;;;;5.00;4.50;;;;;;;25.57;33.67;95457.53;6137586;23;20183;-82
2023/06/08 10:27:09;;;;;;;5.50;5.00;;;;;;;25.38;35.57;95458.84;6161446;23;20692;-82
2023/06/08 10:29:34;;;;;;;5.75;5.20;;;;;;;25.07;36.44;95453.00;6137810;23;20162;-82
2023/06/08 10:32:05;;;;;;;6.32;5.75;;;;;;;24.80;37.10;95451.97;6161329;23;20155;-82
2023/06/08 10:34:38;;;;;;;5.68;5.07;;;;;;;25.78;34.44;95444.53;6163648;23;20250;-83
2023/06/08 10:37:03;;;;;;;5.38;4.88;;;;;;;25.53;36.72;95450.25;6136679;23;20151;-83
2023/06/08 10:39:29;;;;;;;4.70;4.20;;;;;;;26.36;35.17;95443.97;6137353;23;20158;-83
2023/06/08 10:41:57;;;;;;;4.93;4.53;;;;;;;26.79;33.16;95450.31;6161637;23;20609;-83
2023/06/08 10:44:23;;;;;;;5.20;4.10;;;;;;;27.27;32.02;95449.44;6161664;23;20175;-81
2023/06/08 10:46:59;;;;;;;4.82;4.43;;;;;;;27.15;31.04;95448.81;6137415;23;20162;-83
2023/06/08 10:49:28;;;;;;;4.78;4.38;;;;;;;27.32;30.97;95452.16;6160438;23;20202;-82
2023/06/08 10:51:55;;;;;;;4.85;4.45;;;;;;;27.41;30.68;95444.47;6138427;23;20171;-83
2023/06/08 10:54:22;;;;;;;4.97;4.10;;;;;;;26.95;31.30;95440.59;6137093;23;20202;-82
2023/06/08 10:56:52;;;;;;;4.28;3.92;;;;;;;27.49;30.56;95437.88;6109268;23;20163;-83
2023/06/08 10:59:35;;;;;;;4.20;3.80;;;;;;;26.98;29.87;95432.91;6161624;23;20225;-83
2023/06/08 11:02:05;;;;;;;6.38;4.38;;;;;;;26.88;28.66;95434.69;6139570;23;20147;-83
2023/06/08 11:04:31;;;;;;;4.65;4.20;;;;;;;27.24;29.21;95441.94;6154895;23;20167;-80
2023/06/08 11:07:04;;;;;;;5.03;4.53;;;;;;;26.97;27.76;95433.97;6156033;23;20240;-79
2023/06/08 11:09:30;;;;;;;5.07;4.47;;;;;;;26.86;28.66;95434.09;6157025;23;20159;-79
2023/06/08 11:11:56;;;;;;;5.00;4.60;;;;;;;26.61;28.93;95438.16;6178194;23;20219;-78
2023/06/08 11:14:21;;;;;;;5.22;4.70;;;;;;;26.25;32.29;95435.06;6145643;23;20203;-83
2023/06/08 11:16:51;;;;;;;4.72;4.32;;;;;;;25.93;31.77;95436.78;6112939;23;20166;-82
2023/06/08 11:19:17;;;;;;;4.38;3.97;;;;;;;26.37;30.82;95431.44;6137011;23;20209;-82
2023/06/08 11:21:44;;;;;;;5.43;4.93;;;;;;;26.72;30.76;95421.22;6161560;23;20155;-81
2023/06/08 11:24:09;;;;;;;5.72;4.65;;;;;;;27.25;30.83;95414.22;6136319;23;20172;-81
2023/06/08 11:26:38;;;;;;;4.88;4.47;;;;;;;27.32;30.43;95424.69;6160697;23;20158;-82
2023/06/08 11:29:03;;;;;;;4.70;4.30;;;;;;;26.72;33.06;95410.56;6161457;23;20163;-83
2023/06/08 11:31:33;;;;;;;5.78;5.28;;;;;;;26.43;31.18;95407.34;6136664;23;20193;-83
2023/06/08 11:33:59;;;;;;;5.30;4.80;;;;;;;26.85;32.18;95404.00;6135847;23;20745;-82